Southport, Maine
Current Conditions -  °F | °C
As of 5:53 AM on Saturday 27 Dec 2014 (Local Time) from KIWI Reporting Station
Scattered Clouds Scattered Clouds  
Wind Chill: 26°   Ceiling: Unl
Heat Index: 26°   Visibility: 10mi
Dew Point: 24°   Wind: 0mph
Humidity: 92%   Direction: NA
Pressure: 30.12"   Gusts: NA
Location:  43.82°N, 69.68°W
Report Text: KIWI 271053Z AUTO 00000KT 10SM SCT050 M03/M04 A3012 RMK AO2 SLP200 I1000 T10331044
Loading
Personal Weather Stations






























Interactive Weather Map New forecast layout! Learn more

10-Day Weather Forecast

Advertisements
Track Severe Weather on mobile